createdAt,value
2022-08-14T00:02:27.117Z,2.97
2022-08-14T00:04:57.539Z,2.50
2022-08-14T00:07:26.430Z,3.43
2022-08-14T00:09:55.876Z,2.97
2022-08-14T00:12:48.154Z,3.00
2022-08-14T00:15:23.421Z,3.37
2022-08-14T00:17:53.813Z,2.90
2022-08-14T00:20:30.993Z,2.63
2022-08-14T00:23:12.255Z,2.40
2022-08-14T00:25:53.758Z,2.53
2022-08-14T00:28:35.658Z,2.37
2022-08-14T00:31:08.079Z,2.57
2022-08-14T00:33:52.211Z,2.63
2022-08-14T00:36:35.888Z,2.13
2022-08-14T00:39:18.372Z,2.30
2022-08-14T00:41:47.668Z,1.90
2022-08-14T00:44:21.389Z,2.10
2022-08-14T00:46:58.769Z,1.80
2022-08-14T00:49:28.644Z,1.70
2022-08-14T00:52:01.066Z,2.00
2022-08-14T00:54:29.509Z,2.23
2022-08-14T00:56:58.696Z,2.43
2022-08-14T00:59:28.642Z,2.17
2022-08-14T01:01:59.616Z,2.47
2022-08-14T01:04:51.546Z,2.20
2022-08-14T01:07:22.890Z,2.10
2022-08-14T01:09:53.130Z,2.10
2022-08-14T01:12:27.389Z,2.03
2022-08-14T01:14:59.672Z,1.90
2022-08-14T01:17:50.592Z,2.13
2022-08-14T01:20:39.654Z,2.00
2022-08-14T01:23:16.420Z,2.23
2022-08-14T01:25:52.172Z,1.90
2022-08-14T01:28:46.230Z,2.83
2022-08-14T01:31:14.405Z,2.27
2022-08-14T01:34:00.074Z,2.27
2022-08-14T01:36:39.051Z,1.60
2022-08-14T01:39:12.842Z,1.90
2022-08-14T01:41:44.096Z,2.30
2022-08-14T01:44:32.139Z,2.33
2022-08-14T01:47:16.458Z,2.13
2022-08-14T01:49:59.360Z,2.17
2022-08-14T01:52:34.480Z,2.40
2022-08-14T01:55:24.658Z,2.10
2022-08-14T01:58:01.423Z,1.80
2022-08-14T02:00:41.382Z,2.03
2022-08-14T02:03:09.775Z,2.30
2022-08-14T02:05:39.031Z,2.27
2022-08-14T02:08:10.168Z,1.67
2022-08-14T02:10:46.790Z,2.00
2022-08-14T02:13:19.722Z,2.90
2022-08-14T02:15:48.486Z,2.60
2022-08-14T02:18:18.888Z,2.10
2022-08-14T02:20:47.785Z,2.70
2022-08-14T02:23:29.145Z,2.07
2022-08-14T02:26:29.149Z,1.70
2022-08-14T02:28:58.381Z,2.40
2022-08-14T02:31:42.229Z,2.40
2022-08-14T02:34:21.991Z,2.00
2022-08-14T02:37:04.832Z,2.23
2022-08-14T02:39:37.275Z,2.13
2022-08-14T02:42:12.965Z,2.00
2022-08-14T02:44:49.327Z,2.43
2022-08-14T02:47:21.264Z,2.73
2022-08-14T02:49:56.930Z,2.53
2022-08-14T02:52:56.071Z,2.60
2022-08-14T02:55:15.669Z,2.33
2022-08-14T02:57:58.062Z,2.60
2022-08-14T03:00:33.180Z,2.73
2022-08-14T03:03:07.527Z,2.67
2022-08-14T03:05:36.923Z,2.30
2022-08-14T03:08:11.901Z,2.60
2022-08-14T03:10:48.590Z,2.43
2022-08-14T03:13:21.378Z,2.00
2022-08-14T03:15:55.639Z,2.63
2022-08-14T03:18:30.859Z,2.30
2022-08-14T03:21:03.691Z,2.67
2022-08-14T03:23:34.975Z,2.83
2022-08-14T03:26:07.889Z,2.60
2022-08-14T03:28:40.486Z,2.47
2022-08-14T03:31:13.199Z,2.20
2022-08-14T03:33:43.097Z,2.10
2022-08-14T03:37:37.769Z,2.33
2022-08-14T03:39:15.773Z,2.30
2022-08-14T03:41:51.224Z,2.20
2022-08-14T03:45:27.537Z,2.27
2022-08-14T03:47:09.354Z,2.40
2022-08-14T03:49:43.062Z,2.60
2022-08-14T03:52:28.121Z,2.60
2022-08-14T03:55:03.476Z,2.50
2022-08-14T03:57:32.941Z,2.10
2022-08-14T04:00:13.584Z,2.60
2022-08-14T04:02:46.898Z,2.60
2022-08-14T04:05:16.694Z,2.30
2022-08-14T04:07:49.838Z,2.47
2022-08-14T04:10:35.255Z,2.80
2022-08-14T04:13:05.987Z,2.20
2022-08-14T04:15:55.689Z,2.80
2022-08-14T04:18:24.637Z,2.60
2022-08-14T04:20:54.952Z,3.00
2022-08-14T04:23:32.767Z,2.77
2022-08-14T04:26:02.950Z,3.10
2022-08-14T04:29:09.037Z,2.63
2022-08-14T04:31:24.824Z,2.73
2022-08-14T04:34:20.714Z,2.50
2022-08-14T04:37:09.474Z,2.77
2022-08-14T04:39:57.888Z,3.40
2022-08-14T04:42:47.281Z,3.33
2022-08-14T04:45:21.460Z,3.50
2022-08-14T04:48:10.138Z,2.90
2022-08-14T04:50:44.441Z,3.60
2022-08-14T04:53:15.808Z,3.83
2022-08-14T04:55:49.831Z,3.13
2022-08-14T04:58:32.580Z,4.00
2022-08-14T05:01:02.662Z,4.50
2022-08-14T05:03:35.636Z,4.53
2022-08-14T05:06:37.569Z,4.80
2022-08-14T05:09:00.062Z,5.73
2022-08-14T05:11:33.464Z,4.47
2022-08-14T05:14:34.084Z,4.40
2022-08-14T05:16:53.871Z,4.63
2022-08-14T05:19:29.171Z,4.97
2022-08-14T05:22:16.737Z,3.60
2022-08-14T05:24:50.463Z,4.13
2022-08-14T05:27:19.939Z,3.87
2022-08-14T05:29:53.447Z,3.90
2022-08-14T05:32:21.825Z,4.67
2022-08-14T05:34:52.432Z,3.93
2022-08-14T05:37:20.707Z,4.10
2022-08-14T05:39:49.113Z,4.40
2022-08-14T05:42:22.046Z,4.07
2022-08-14T05:44:55.915Z,4.60
2022-08-14T05:47:33.728Z,4.27
2022-08-14T05:50:17.384Z,4.43
2022-08-14T05:52:48.107Z,3.73
2022-08-14T05:55:22.249Z,5.60
2022-08-14T05:57:54.439Z,5.00
2022-08-14T06:00:29.259Z,5.70
2022-08-14T06:03:06.813Z,6.00
2022-08-14T06:05:38.838Z,5.80
2022-08-14T06:08:08.594Z,5.47
2022-08-14T06:10:51.526Z,5.37
2022-08-14T06:13:20.515Z,5.63
2022-08-14T06:15:51.790Z,4.80
2022-08-14T06:18:21.376Z,5.83
2022-08-14T06:20:57.275Z,5.87
2022-08-14T06:23:25.576Z,5.20
2022-08-14T06:25:55.683Z,5.67
2022-08-14T06:28:28.575Z,4.73
2022-08-14T06:30:57.682Z,3.97
2022-08-14T06:35:01.091Z,4.17
2022-08-14T06:36:19.154Z,5.37
2022-08-14T06:38:50.257Z,4.70
2022-08-14T06:41:20.611Z,4.00
2022-08-14T06:43:49.447Z,3.40
2022-08-14T06:46:22.951Z,4.40
2022-08-14T06:48:54.830Z,3.30
2022-08-14T06:51:24.864Z,4.93
2022-08-14T06:54:08.483Z,4.20
2022-08-14T06:56:36.880Z,4.53
2022-08-14T06:59:06.904Z,4.50
2022-08-14T07:02:02.087Z,4.63
2022-08-14T07:04:48.099Z,3.70
2022-08-14T07:07:18.459Z,6.23
2022-08-14T07:09:50.925Z,6.57
2022-08-14T07:12:35.999Z,6.10
2022-08-14T07:15:09.563Z,6.70
2022-08-14T07:17:46.284Z,5.03
2022-08-14T07:20:31.165Z,5.03
2022-08-14T07:23:07.749Z,4.90
2022-08-14T07:25:37.718Z,4.47
2022-08-14T07:28:12.918Z,5.10
2022-08-14T07:30:51.109Z,4.30
2022-08-14T07:33:24.889Z,4.60
2022-08-14T07:35:59.489Z,3.83
2022-08-14T07:38:37.580Z,4.00
2022-08-14T07:41:14.743Z,4.47
2022-08-14T07:43:52.942Z,4.10
2022-08-14T07:46:29.585Z,4.70
2022-08-14T07:48:59.655Z,3.80
2022-08-14T07:51:34.425Z,3.17
2022-08-14T07:54:11.425Z,3.80
2022-08-14T07:56:46.669Z,3.30
2022-08-14T07:59:20.659Z,3.50
2022-08-14T08:02:19.599Z,3.73
2022-08-14T08:04:52.968Z,3.20
2022-08-14T08:07:23.815Z,3.30
2022-08-14T08:09:58.082Z,3.30
2022-08-14T08:12:30.949Z,3.37
2022-08-14T08:15:07.139Z,3.03
2022-08-14T08:17:42.766Z,3.50
2022-08-14T08:20:27.194Z,3.20
2022-08-14T08:23:00.424Z,2.70
2022-08-14T08:25:40.042Z,3.10
2022-08-14T08:28:21.819Z,3.40
2022-08-14T08:30:56.323Z,2.90
2022-08-14T08:33:32.287Z,3.90
2022-08-14T08:36:08.225Z,3.20
2022-08-14T08:39:18.585Z,3.13
2022-08-14T08:41:42.268Z,3.77
2022-08-14T08:44:31.173Z,3.60
2022-08-14T08:47:01.727Z,3.23
2022-08-14T08:49:42.287Z,2.93
2022-08-14T08:52:24.344Z,2.80
2022-08-14T08:54:57.327Z,2.73
2022-08-14T08:57:28.344Z,3.17
2022-08-14T08:59:58.876Z,3.47
2022-08-14T09:02:27.973Z,3.43
2022-08-14T09:05:03.951Z,3.60
2022-08-14T09:07:33.068Z,3.57
2022-08-14T09:10:01.812Z,3.50
2022-08-14T09:12:35.159Z,3.00
2022-08-14T09:15:09.030Z,3.97
2022-08-14T09:17:41.325Z,3.37
2022-08-14T09:20:12.016Z,3.40
2022-08-14T09:22:47.740Z,3.60
2022-08-14T09:25:19.583Z,3.23
2022-08-14T09:27:49.887Z,3.37
2022-08-14T09:30:33.020Z,3.27
2022-08-14T09:33:56.061Z,3.73
2022-08-14T09:36:49.240Z,3.00
2022-08-14T09:39:30.740Z,2.90
2022-08-14T09:42:32.937Z,3.27
2022-08-14T09:45:16.666Z,2.60
2022-08-14T09:47:49.078Z,2.63
2022-08-14T09:50:26.860Z,2.67
2022-08-14T09:52:58.653Z,3.10
2022-08-14T09:55:36.873Z,2.27
2022-08-14T09:58:14.782Z,2.40
2022-08-14T10:00:50.055Z,2.53
2022-08-14T10:03:33.151Z,2.50
2022-08-14T10:06:09.923Z,2.70
2022-08-14T10:08:44.354Z,2.80
2022-08-14T10:11:19.555Z,2.53
2022-08-14T10:13:55.654Z,2.67
2022-08-14T10:16:33.108Z,3.27
2022-08-14T10:19:10.281Z,2.20
2022-08-14T10:23:11.045Z,2.50
2022-08-14T10:24:36.260Z,2.67
2022-08-14T10:27:06.947Z,2.70
2022-08-14T10:29:37.709Z,2.20
2022-08-14T10:32:17.614Z,2.27
2022-08-14T10:34:52.910Z,2.50
2022-08-14T10:37:23.728Z,2.00
2022-08-14T10:40:10.613Z,1.97
2022-08-14T10:42:50.580Z,2.23
2022-08-14T10:45:21.881Z,1.90
2022-08-14T10:48:09.560Z,2.50
2022-08-14T10:50:46.334Z,2.23
2022-08-14T10:53:16.147Z,2.30
2022-08-14T10:55:45.579Z,1.60
2022-08-14T10:58:14.865Z,2.53
2022-08-14T11:00:55.499Z,1.80
2022-08-14T11:03:35.796Z,2.03
2022-08-14T11:06:19.017Z,1.70
2022-08-14T11:08:50.884Z,2.50
2022-08-14T11:11:20.923Z,2.90
2022-08-14T11:13:51.151Z,2.50
2022-08-14T11:16:19.779Z,2.20
2022-08-14T11:18:51.244Z,2.07
2022-08-14T11:21:24.012Z,1.90
2022-08-14T11:24:00.361Z,2.00
2022-08-14T11:26:30.410Z,2.30
2022-08-14T11:29:01.574Z,1.83
2022-08-14T11:31:38.550Z,2.43
2022-08-14T11:34:10.485Z,2.73
2022-08-14T11:37:07.695Z,2.20
2022-08-14T11:39:45.964Z,2.10
2022-08-14T11:42:58.860Z,1.80
2022-08-14T11:45:17.231Z,1.90
2022-08-14T11:48:13.597Z,2.03
2022-08-14T11:50:38.181Z,2.40
2022-08-14T11:53:08.706Z,1.90
2022-08-14T11:55:39.681Z,1.73
2022-08-14T11:58:11.888Z,2.00
2022-08-14T12:00:50.658Z,1.83
2022-08-14T12:03:37.702Z,2.17
2022-08-14T12:06:29.207Z,1.77
2022-08-14T12:09:00.942Z,2.03
2022-08-14T12:11:44.054Z,2.43
2022-08-14T12:14:30.604Z,1.60
2022-08-14T12:17:11.767Z,2.03
2022-08-14T12:19:51.099Z,1.90
2022-08-14T12:22:34.371Z,1.93
2022-08-14T12:25:08.461Z,1.30
2022-08-14T12:27:52.022Z,2.40
2022-08-14T12:30:39.682Z,1.93
2022-08-14T12:33:25.740Z,1.83
2022-08-14T12:36:05.385Z,1.73
2022-08-14T12:38:38.447Z,1.70
2022-08-14T12:41:20.851Z,1.80
2022-08-14T12:43:53.765Z,1.87
2022-08-14T12:46:27.250Z,1.80
2022-08-14T12:48:58.354Z,1.53
2022-08-14T12:51:28.047Z,1.57
2022-08-14T12:53:59.449Z,1.70
2022-08-14T12:56:33.467Z,1.60
2022-08-14T12:59:03.150Z,1.80
2022-08-14T13:01:59.278Z,1.60
2022-08-14T13:04:22.946Z,1.93
2022-08-14T13:06:52.031Z,1.67
2022-08-14T13:09:36.438Z,2.03
2022-08-14T13:12:31.847Z,1.50
2022-08-14T13:14:59.137Z,2.13
2022-08-14T13:17:38.126Z,1.50
2022-08-14T13:20:10.398Z,1.70
2022-08-14T13:22:42.724Z,1.97
2022-08-14T13:25:16.694Z,1.77
2022-08-14T13:27:47.773Z,1.90
2022-08-14T13:30:23.505Z,2.03
2022-08-14T13:32:53.979Z,1.87
2022-08-14T13:35:23.001Z,1.60
2022-08-14T13:37:53.731Z,1.60
2022-08-14T13:40:26.400Z,2.13
2022-08-14T13:42:57.292Z,1.67
2022-08-14T13:45:33.902Z,2.40
2022-08-14T13:48:18.482Z,2.07
2022-08-14T13:51:02.074Z,2.17
2022-08-14T13:53:35.093Z,2.00
2022-08-14T13:56:14.582Z,2.27
2022-08-14T13:58:58.857Z,2.20
2022-08-14T14:01:29.709Z,2.40
2022-08-14T14:04:00.515Z,2.13
2022-08-14T14:06:32.264Z,1.77
2022-08-14T14:09:03.524Z,2.10
2022-08-14T14:11:34.090Z,2.10
2022-08-14T14:14:04.981Z,2.40
2022-08-14T14:16:33.557Z,2.10
2022-08-14T14:19:09.470Z,2.20
2022-08-14T14:21:40.735Z,2.90
2022-08-14T14:24:14.773Z,2.77
2022-08-14T14:26:50.079Z,2.77
2022-08-14T14:29:24.078Z,3.03
2022-08-14T14:31:55.399Z,3.50
2022-08-14T14:34:29.396Z,3.57
2022-08-14T14:37:02.886Z,3.80
2022-08-14T14:39:37.657Z,4.30
2022-08-14T14:42:13.679Z,3.80
2022-08-14T14:44:53.008Z,4.97
2022-08-14T14:47:25.703Z,4.83
2022-08-14T14:49:55.721Z,4.47
2022-08-14T14:52:26.866Z,4.30
2022-08-14T14:54:57.701Z,5.90
2022-08-14T14:57:34.883Z,4.63
2022-08-14T15:00:06.872Z,3.80
2022-08-14T15:02:41.326Z,4.17
2022-08-14T15:05:11.451Z,3.97
2022-08-14T15:07:41.457Z,4.17
2022-08-14T15:10:27.363Z,3.83
2022-08-14T15:13:04.240Z,3.70
2022-08-14T15:15:37.250Z,3.90
2022-08-14T15:18:36.714Z,3.17
2022-08-14T15:20:57.501Z,2.60
2022-08-14T15:23:43.736Z,3.30
2022-08-14T15:26:23.328Z,3.20
2022-08-14T15:29:03.070Z,3.10
2022-08-14T15:31:34.698Z,3.43
2022-08-14T15:34:45.698Z,2.33
2022-08-14T15:37:02.506Z,3.47
2022-08-14T15:39:35.811Z,3.23
2022-08-14T15:42:14.861Z,2.43
2022-08-14T15:44:58.587Z,2.70
2022-08-14T15:47:31.706Z,3.00
2022-08-14T15:50:04.414Z,3.47
2022-08-14T15:52:37.425Z,3.07
2022-08-14T15:55:08.432Z,3.47
2022-08-14T15:57:37.327Z,3.20
2022-08-14T16:00:40.486Z,3.07
2022-08-14T16:03:16.487Z,3.30
2022-08-14T16:05:46.189Z,3.20
2022-08-14T16:08:24.308Z,3.37
2022-08-14T16:10:57.273Z,3.17
2022-08-14T16:13:41.183Z,3.20
2022-08-14T16:16:47.586Z,3.90
2022-08-14T16:19:10.131Z,3.67
2022-08-14T16:22:02.006Z,3.70
2022-08-14T16:24:33.379Z,3.37
2022-08-14T16:27:03.422Z,3.73
2022-08-14T16:29:36.071Z,3.70
2022-08-14T16:32:32.545Z,3.40
2022-08-14T16:34:55.890Z,3.33
2022-08-14T16:37:30.400Z,4.00
2022-08-14T16:40:00.795Z,3.47
2022-08-14T16:43:03.337Z,3.70
2022-08-14T16:45:24.932Z,4.23
2022-08-14T16:47:55.184Z,3.90
2022-08-14T16:50:43.481Z,3.13
2022-08-14T16:53:17.753Z,3.80
2022-08-14T16:55:53.166Z,3.30
2022-08-14T16:58:27.764Z,3.83
2022-08-14T17:01:24.606Z,2.90
2022-08-14T17:04:00.979Z,3.30
2022-08-14T17:06:48.408Z,3.20
2022-08-14T17:09:32.126Z,3.77
2022-08-14T17:12:07.427Z,3.10
2022-08-14T17:15:01.637Z,2.90
2022-08-14T17:17:44.848Z,3.80
2022-08-14T17:20:44.419Z,3.30
2022-08-14T17:23:13.754Z,3.87
2022-08-14T17:28:51.256Z,3.27
2022-08-14T17:31:19.363Z,3.20
2022-08-14T17:33:52.438Z,3.80
2022-08-14T17:36:25.152Z,3.00
2022-08-14T17:39:06.886Z,3.77
2022-08-14T17:41:38.682Z,3.40
2022-08-14T17:44:34.048Z,3.20
2022-08-14T17:47:11.144Z,4.07
2022-08-14T17:49:47.117Z,3.00
2022-08-14T17:52:34.904Z,3.20
2022-08-14T17:55:06.492Z,3.20
2022-08-14T17:57:41.107Z,3.67
2022-08-14T18:00:13.096Z,3.13
2022-08-14T18:02:51.108Z,3.83
2022-08-14T18:05:22.961Z,3.97
2022-08-14T18:08:31.165Z,3.33
2022-08-14T18:10:55.061Z,3.70
2022-08-14T18:13:49.829Z,3.80
2022-08-14T18:16:19.743Z,3.20
2022-08-14T18:18:51.809Z,4.13
2022-08-14T18:21:41.265Z,3.70
2022-08-14T18:24:20.067Z,3.90
2022-08-14T18:27:06.866Z,3.70
2022-08-14T18:29:44.724Z,4.27
2022-08-14T18:32:47.645Z,3.03
2022-08-14T18:35:45.707Z,3.73
2022-08-14T18:38:26.137Z,3.77
2022-08-14T18:41:36.572Z,3.63
2022-08-14T18:44:10.574Z,4.33
2022-08-14T18:47:21.252Z,4.00
2022-08-14T18:50:27.795Z,3.33
2022-08-14T18:53:08.947Z,3.57
2022-08-14T18:55:53.176Z,3.13
2022-08-14T18:58:33.995Z,4.37
2022-08-14T19:01:04.701Z,4.00
2022-08-14T19:03:59.260Z,3.33
2022-08-14T19:06:56.328Z,3.37
2022-08-14T19:09:54.485Z,3.57
2022-08-14T19:13:05.311Z,4.40
2022-08-14T19:15:43.953Z,5.10
2022-08-14T19:18:25.953Z,4.93
2022-08-14T19:20:58.439Z,4.13
2022-08-14T19:23:43.929Z,3.70
2022-08-14T19:26:37.519Z,4.50
2022-08-14T19:29:25.606Z,4.20
2022-08-14T19:31:58.989Z,3.43
2022-08-14T19:34:40.458Z,4.13
2022-08-14T19:37:52.382Z,4.07
2022-08-14T19:40:33.967Z,3.30
2022-08-14T19:43:06.655Z,3.60
2022-08-14T19:45:38.872Z,3.30
2022-08-14T19:48:15.639Z,3.13
2022-08-14T19:50:46.884Z,3.60
2022-08-14T19:53:18.450Z,3.97
2022-08-14T19:56:01.446Z,3.37
2022-08-14T19:58:54.413Z,3.20
2022-08-14T20:01:36.588Z,3.27
2022-08-14T20:04:22.837Z,3.57
2022-08-14T20:07:04.307Z,3.67
2022-08-14T20:11:11.457Z,3.90
2022-08-14T20:12:35.266Z,3.97
2022-08-14T20:15:18.037Z,3.60
2022-08-14T20:17:52.560Z,4.27
2022-08-14T20:20:31.804Z,3.33
2022-08-14T20:23:11.438Z,3.70
2022-08-14T20:25:45.482Z,3.97
2022-08-14T20:28:35.391Z,3.20
2022-08-14T20:31:17.652Z,3.77
2022-08-14T20:34:06.631Z,3.00
2022-08-14T20:36:39.978Z,4.07
2022-08-14T20:39:15.689Z,3.47
2022-08-14T20:41:51.127Z,3.70
2022-08-14T20:44:40.957Z,3.37
2022-08-14T20:47:16.253Z,3.43
2022-08-14T20:49:45.219Z,3.47
2022-08-14T20:52:19.813Z,4.17
2022-08-14T20:54:51.448Z,3.57
2022-08-14T20:57:21.623Z,3.30
2022-08-14T20:59:53.530Z,3.37
2022-08-14T21:02:50.018Z,3.60
2022-08-14T21:05:33.949Z,3.73
2022-08-14T21:08:09.639Z,3.53
2022-08-14T21:10:51.217Z,3.03
2022-08-14T21:13:29.101Z,3.60
2022-08-14T21:16:35.672Z,3.37
2022-08-14T21:19:00.114Z,3.73
2022-08-14T21:21:41.135Z,3.30
2022-08-14T21:24:38.716Z,3.20
2022-08-14T21:27:13.241Z,3.40
2022-08-14T21:29:55.335Z,3.40
2022-08-14T21:32:36.463Z,3.47
2022-08-14T21:35:17.669Z,3.10
2022-08-14T21:37:47.659Z,3.70
2022-08-14T21:40:40.752Z,4.10
2022-08-14T21:43:17.459Z,3.40
2022-08-14T21:45:53.338Z,3.87
2022-08-14T21:48:25.426Z,2.83
2022-08-14T21:51:02.007Z,2.80
2022-08-14T21:53:59.380Z,3.00
2022-08-14T21:56:38.617Z,3.70
2022-08-14T21:59:17.849Z,3.80
2022-08-14T22:02:01.832Z,3.80
2022-08-14T22:04:40.723Z,3.10
2022-08-14T22:07:17.389Z,3.60
2022-08-14T22:09:55.125Z,3.10
2022-08-14T22:12:58.505Z,3.60
2022-08-14T22:15:15.353Z,2.70
2022-08-14T22:17:44.759Z,4.00
2022-08-14T22:20:21.555Z,4.00
2022-08-14T22:22:55.932Z,3.10
2022-08-14T22:25:33.317Z,3.90
2022-08-14T22:28:04.306Z,3.10
2022-08-14T22:30:32.583Z,3.23
2022-08-14T22:33:01.260Z,3.13
2022-08-14T22:35:29.997Z,4.33
2022-08-14T22:38:34.593Z,3.70
2022-08-14T22:41:06.734Z,3.07
2022-08-14T22:43:39.238Z,3.53
2022-08-14T22:46:15.060Z,3.70
2022-08-14T22:48:45.251Z,3.77
2022-08-14T22:51:14.883Z,3.20
2022-08-14T22:53:46.239Z,3.00
2022-08-14T22:56:21.507Z,3.60
2022-08-14T22:58:53.651Z,3.63
2022-08-14T23:01:56.059Z,3.70
2022-08-14T23:04:35.498Z,4.50
2022-08-14T23:07:05.286Z,3.80
2022-08-14T23:09:38.240Z,3.33
2022-08-14T23:12:28.303Z,3.73
2022-08-14T23:14:58.014Z,2.83
2022-08-14T23:17:27.620Z,3.67
2022-08-14T23:20:19.173Z,4.27
2022-08-14T23:22:50.474Z,3.50
2022-08-14T23:25:56.882Z,2.90
2022-08-14T23:28:34.041Z,3.17
2022-08-14T23:31:08.099Z,3.43
2022-08-14T23:33:42.003Z,3.13
2022-08-14T23:36:31.501Z,3.10
2022-08-14T23:39:02.122Z,3.53
2022-08-14T23:41:46.314Z,2.77
2022-08-14T23:44:21.796Z,2.97
2022-08-14T23:46:52.764Z,2.80
2022-08-14T23:49:25.540Z,3.87
2022-08-14T23:52:50.215Z,3.53
2022-08-14T23:54:49.296Z,3.13
2022-08-14T23:57:19.772Z,2.97
2022-08-14T23:59:54.769Z,3.20
